Time;durP1;ratioP1;P1;durP2;ratioP2;P2;SDS_P1;SDS_P2;PMS_P1;PMS_P2;Temp;Humidity;BMP_temperature;BMP_pressure;BME280_temperature;BME280_humidity;BME280_pressure;Samples;Min_cycle;Max_cycle;Signal;HPM_P1;HPM_P2
2022/08/12 00:44:26;;;;;;;3.22;2.90;;;;;;;22.86;100.00;151784.94;5112061;28;20216;-61
2022/08/12 00:46:58;;;;;;;2.80;2.60;;;;;;;22.98;100.00;151815.56;5112078;28;20190;-61
2022/08/12 00:49:28;;;;;;;3.03;2.90;;;;;;;22.97;100.00;151813.00;5111842;28;20283;-61
2022/08/12 00:52:08;;;;;;;3.58;3.35;;;;;;;22.94;100.00;151806.63;5112056;28;20191;-62
2022/08/12 00:54:40;;;;;;;3.72;3.38;;;;;;;22.70;100.00;151745.41;5112190;28;20535;-62
2022/08/12 00:57:10;;;;;;;2.72;2.53;;;;;;;22.82;100.00;151774.75;5111958;28;20574;-62
2022/08/12 00:59:43;;;;;;;3.03;2.83;;;;;;;22.70;100.00;151746.66;5112191;28;20654;-61
2022/08/12 01:02:13;;;;;;;3.20;2.97;;;;;;;22.84;100.00;151781.09;5112195;28;20187;-61
2022/08/12 01:12:58;;;;;;;3.00;2.88;;;;;;;22.80;100.00;151770.91;5111830;28;20226;-61
2022/08/12 01:15:26;;;;;;;3.67;3.10;;;;;;;22.73;100.00;151754.34;5111589;28;20240;-62
2022/08/12 01:17:53;;;;;;;3.22;2.90;;;;;;;21.55;100.00;151455.91;5111682;28;20225;-62
2022/08/12 01:20:35;;;;;;;2.95;2.85;;;;;;;22.66;100.00;151736.41;5111571;28;20192;-61
2022/08/12 01:23:56;;;;;;;3.05;2.85;;;;;;;22.49;100.00;151691.81;5112131;28;20503;-60
2022/08/12 01:26:25;;;;;;;3.03;2.65;;;;;;;22.43;100.00;151676.47;5111807;28;20642;-61
2022/08/12 01:28:56;;;;;;;2.85;2.65;;;;;;;22.56;100.00;151710.94;5111787;28;20190;-62
2022/08/12 01:31:25;;;;;;;2.90;2.80;;;;;;;22.57;100.00;151712.22;5112075;28;20194;-61
2022/08/12 01:34:02;;;;;;;3.03;2.92;;;;;;;22.57;100.00;151713.50;5112076;28;20621;-62
2022/08/12 01:36:35;;;;;;;3.42;2.70;;;;;;;22.56;100.00;151709.66;5111569;28;20187;-62
2022/08/12 01:39:03;;;;;;;3.58;3.28;;;;;;;22.59;100.00;151718.56;5111450;28;20187;-61
2022/08/12 01:41:38;;;;;;;3.20;2.92;;;;;;;22.53;100.00;151703.25;5113159;28;20207;-61
2022/08/12 01:44:09;;;;;;;4.60;2.80;;;;;;;22.42;100.00;151673.91;5115751;28;20277;-62
2022/08/12 01:46:47;;;;;;;3.45;3.17;;;;;;;22.42;100.00;151673.91;5115690;28;20274;-61
2022/08/12 01:49:33;;;;;;;4.28;3.00;;;;;;;22.32;100.00;151649.69;5115188;28;20194;-61
2022/08/12 01:52:04;;;;;;;2.78;2.67;;;;;;;22.36;100.00;151659.94;5115306;28;20283;-61
2022/08/12 01:54:37;;;;;;;3.10;2.90;;;;;;;22.15;100.00;151607.59;5115648;28;20565;-60
2022/08/12 01:57:13;;;;;;;3.05;2.95;;;;;;;22.23;100.00;151628.06;5115243;28;20210;-61
2022/08/12 01:59:57;;;;;;;3.08;2.95;;;;;;;22.23;100.00;151626.78;5114958;28;20183;-62
2022/08/12 02:02:27;;;;;;;3.05;2.95;;;;;;;22.17;100.00;151611.44;5114839;28;20187;-61
2022/08/12 02:11:15;;;;;;;4.60;2.97;;;;;;;21.94;100.00;151554.06;5115153;28;20240;-62
2022/08/12 02:14:01;;;;;;;2.92;2.83;;;;;;;22.05;100.00;151582.13;5114800;28;20234;-61
2022/08/12 02:16:44;;;;;;;3.28;3.00;;;;;;;21.94;100.00;151554.06;5114627;28;20189;-61
2022/08/12 02:19:24;;;;;;;3.28;3.08;;;;;;;21.99;100.00;151566.81;5115012;28;20626;-61
2022/08/12 02:21:59;;;;;;;3.30;3.20;;;;;;;21.92;100.00;151547.66;5115349;28;20222;-61
2022/08/12 02:24:32;;;;;;;3.15;2.92;;;;;;;21.71;100.00;151496.69;5115145;28;20183;-62
2022/08/12 02:27:00;;;;;;;3.00;2.90;;;;;;;21.70;100.00;151492.84;5114456;28;20187;-61
2022/08/12 02:29:29;;;;;;;3.10;2.92;;;;;;;21.79;100.00;151517.06;5115417;28;20179;-61
2022/08/12 02:31:58;;;;;;;3.15;3.05;;;;;;;21.77;100.00;151511.94;5114279;28;20184;-61
2022/08/12 02:34:25;;;;;;;2.95;2.85;;;;;;;21.84;100.00;151529.81;5114598;28;20627;-61
2022/08/12 02:36:54;;;;;;;3.65;2.80;;;;;;;21.78;100.00;151514.50;5114842;28;20191;-61
2022/08/12 02:39:25;;;;;;;2.90;2.80;;;;;;;21.87;100.00;151536.19;5114466;28;20649;-61
2022/08/12 02:41:55;;;;;;;3.50;3.28;;;;;;;21.87;100.00;151536.19;5114345;28;20627;-61
2022/08/12 02:44:25;;;;;;;2.88;2.78;;;;;;;21.82;100.00;151524.72;5114739;28;20538;-63
2022/08/12 02:46:58;;;;;;;5.18;3.00;;;;;;;21.80;100.00;151518.34;5114719;28;20278;-61
2022/08/12 02:49:30;;;;;;;3.88;3.58;;;;;;;21.75;100.00;151506.88;5114499;28;20195;-61
2022/08/12 02:51:59;;;;;;;2.83;2.72;;;;;;;21.64;100.00;151477.56;5113938;28;20190;-60
2022/08/12 02:54:26;;;;;;;3.90;3.70;;;;;;;21.69;100.00;151491.56;5113265;28;20634;-61
2022/08/12 02:56:55;;;;;;;3.65;3.35;;;;;;;21.57;100.00;151459.69;5114078;28;20626;-61
2022/08/12 02:59:23;;;;;;;3.25;3.05;;;;;;;21.56;100.00;151457.13;5113885;28;20186;-61
2022/08/12 03:01:53;;;;;;;3.60;3.30;;;;;;;21.52;100.00;151446.94;5113667;28;20213;-61
2022/08/12 03:04:26;;;;;;;3.78;3.47;;;;;;;21.17;100.00;151360.34;5113956;28;20534;-61
2022/08/12 03:07:09;;;;;;;3.35;3.15;;;;;;;21.43;100.00;151426.56;5114262;28;20620;-61
2022/08/12 03:09:44;;;;;;;4.60;3.33;;;;;;;21.49;100.00;151440.59;5113547;28;20183;-61
2022/08/12 03:12:12;;;;;;;3.13;3.03;;;;;;;21.36;100.00;151408.72;5113476;28;20217;-62
2022/08/12 03:14:42;;;;;;;4.60;3.47;;;;;;;21.62;100.00;151472.44;5113616;28;20233;-61
2022/08/12 03:17:19;;;;;;;3.63;3.30;;;;;;;21.54;100.00;151453.34;5113755;28;20248;-61
2022/08/12 03:19:46;;;;;;;4.85;3.60;;;;;;;21.49;100.00;151439.31;5114158;28;20187;-61
2022/08/12 03:22:14;;;;;;;4.53;4.22;;;;;;;21.40;100.00;151418.94;5113307;28;20202;-61
2022/08/12 03:24:43;;;;;;;11.70;4.15;;;;;;;21.48;100.00;151436.75;5113553;28;20183;-61
2022/08/12 03:27:13;;;;;;;4.25;4.05;;;;;;;21.47;100.00;151435.53;5113436;28;20222;-61
2022/08/12 03:29:41;;;;;;;4.65;4.35;;;;;;;21.28;100.00;151388.34;5113318;28;20196;-61
2022/08/12 03:32:09;;;;;;;6.15;4.47;;;;;;;21.23;100.00;151374.31;5113279;28;20183;-61
2022/08/12 03:34:40;;;;;;;4.50;4.18;;;;;;;21.27;100.00;151385.78;5113559;28;20289;-62
2022/08/12 03:37:07;;;;;;;5.25;4.85;;;;;;;21.18;100.00;151361.56;5112975;28;20184;-62
2022/08/12 03:39:43;;;;;;;4.43;4.03;;;;;;;21.31;100.00;151395.97;5113344;28;20199;-62
2022/08/12 03:42:24;;;;;;;4.70;4.50;;;;;;;21.47;100.00;151434.25;5113310;28;20522;-61
2022/08/12 04:01:51;;;;;;;5.32;4.97;;;;;;;22.59;100.00;151718.56;5112776;28;20174;-61
2022/08/12 04:04:22;;;;;;;5.30;4.95;;;;;;;22.87;100.00;151787.50;5112870;28;20223;-61
2022/08/12 04:06:51;;;;;;;5.25;5.05;;;;;;;23.07;100.00;151838.53;5112800;28;20229;-60
2022/08/12 04:09:21;;;;;;;9.30;5.70;;;;;;;23.30;100.00;151895.97;5112825;28;20192;-60
2022/08/12 04:14:33;;;;;;;5.85;5.20;;;;;;;23.37;100.00;151913.81;5112259;28;20272;-60
2022/08/12 04:17:01;;;;;;;5.10;4.90;;;;;;;23.47;100.00;151939.34;5112493;28;20183;-62
2022/08/12 04:19:29;;;;;;;5.20;4.90;;;;;;;23.12;100.00;151852.56;5112668;28;20290;-62
2022/08/12 04:21:58;;;;;;;5.30;5.10;;;;;;;23.45;100.00;151935.56;5112683;28;20213;-60
2022/08/12 04:24:26;;;;;;;8.75;5.55;;;;;;;23.39;100.00;151918.88;5112598;28;20186;-61
2022/08/12 04:26:53;;;;;;;5.03;4.65;;;;;;;23.71;100.00;152000.66;5112427;28;20183;-61
2022/08/12 04:29:21;;;;;;;5.03;4.55;;;;;;;23.72;100.00;152003.16;5112186;28;20187;-62
2022/08/12 04:31:48;;;;;;;4.78;4.57;;;;;;;24.11;100.00;152102.75;5112029;28;20180;-62
2022/08/12 04:34:15;;;;;;;4.85;4.55;;;;;;;24.04;100.00;152084.88;5112393;28;20234;-60
2022/08/12 04:36:43;;;;;;;4.90;4.70;;;;;;;24.31;100.00;152152.63;5112353;28;20183;-61
2022/08/12 04:39:12;;;;;;;6.38;4.93;;;;;;;24.60;100.00;152225.38;5111892;28;20226;-61
2022/08/12 04:41:40;;;;;;;6.63;4.93;;;;;;;24.90;100.00;152302.09;5112006;28;20191;-61
2022/08/12 04:44:08;;;;;;;4.90;4.70;;;;;;;24.88;100.00;152296.94;5112048;28;20184;-61
2022/08/12 04:46:37;;;;;;;5.15;4.70;;;;;;;25.33;100.00;152409.41;5112118;28;20251;-62
2022/08/12 04:49:05;;;;;;;5.72;5.30;;;;;;;25.51;100.00;152454.06;5112543;28;20270;-61
2022/08/12 04:51:33;;;;;;;8.50;5.82;;;;;;;25.67;100.00;152495.06;5111853;28;20187;-61
2022/08/12 04:54:01;;;;;;;6.22;5.70;;;;;;;25.83;100.00;152535.94;5112466;28;20193;-62
2022/08/12 04:56:29;;;;;;;4.80;4.45;;;;;;;26.05;100.00;152590.91;5111971;28;20188;-61
2022/08/12 04:58:57;;;;;;;5.28;4.88;;;;;;;26.13;100.00;152611.38;5112316;28;20230;-61
2022/08/12 05:01:29;;;;;;;5.05;4.80;;;;;;;25.71;100.00;152506.56;5111828;28;20187;-61
2022/08/12 05:03:57;;;;;;;5.45;5.03;;;;;;;25.80;100.00;152528.28;5111690;28;20187;-61
2022/08/12 05:06:24;;;;;;;5.50;4.97;;;;;;;25.63;100.00;152484.84;5112036;28;20631;-61
2022/08/12 05:08:54;;;;;;;6.53;6.13;;;;;;;25.47;100.00;152446.41;5111786;28;20219;-61
2022/08/12 05:11:23;;;;;;;5.28;5.00;;;;;;;25.37;100.00;152420.91;5111676;28;20184;-61
2022/08/12 05:13:57;;;;;;;6.63;4.55;;;;;;;25.39;100.00;152424.69;5111877;28;20235;-62
2022/08/12 05:16:25;;;;;;;11.60;5.65;;;;;;;25.53;100.00;152460.53;5113026;28;20239;-62
2022/08/12 05:18:52;;;;;;;5.25;5.05;;;;;;;25.59;100.00;152474.63;5115925;28;20298;-62
2022/08/12 05:21:19;;;;;;;5.70;5.43;;;;;;;25.82;100.00;152534.66;5116067;28;20183;-62
2022/08/12 05:23:46;;;;;;;6.07;5.72;;;;;;;26.40;100.00;152680.41;5115944;28;20194;-61
2022/08/12 05:26:13;;;;;;;6.10;5.68;;;;;;;26.82;100.00;152787.84;5115706;28;20188;-61
2022/08/12 05:28:40;;;;;;;5.85;5.57;;;;;;;27.07;100.00;152850.59;5115652;28;20180;-61
2022/08/12 05:31:10;;;;;;;5.43;5.13;;;;;;;27.66;100.00;153000.34;5115718;28;20565;-62
2022/08/12 05:33:39;;;;;;;6.47;5.97;;;;;;;28.20;100.00;153134.75;5115753;28;20282;-62
2022/08/12 05:36:07;;;;;;;11.90;6.80;;;;;;;28.05;100.00;153098.84;5116317;28;20240;-61
2022/08/12 05:41:20;;;;;;;9.90;6.20;;;;;;;28.01;100.00;153087.31;5115513;28;20182;-62
2022/08/12 05:43:48;;;;;;;6.30;5.70;;;;;;;29.01;100.00;153340.94;5115606;28;20588;-61
2022/08/12 05:46:17;;;;;;;6.68;5.35;;;;;;;30.11;100.00;153619.03;5096994;28;20192;-62
2022/08/12 05:48:44;;;;;;;7.40;5.63;;;;;;;30.96;100.00;153835.72;5115097;28;20180;-62
2022/08/12 05:51:11;;;;;;;7.55;6.95;;;;;;;31.58;91.88;153993.53;5115192;28;20270;-62
2022/08/12 05:53:39;;;;;;;6.32;5.75;;;;;;;32.81;85.35;154304.13;5114987;28;20653;-62
2022/08/12 05:56:07;;;;;;;6.65;6.30;;;;;;;32.89;84.96;154325.94;5115008;28;20191;-63
2022/08/12 05:58:34;;;;;;;7.32;6.70;;;;;;;33.20;83.76;154404.31;5115194;28;20273;-61
2022/08/12 06:01:01;;;;;;;6.93;6.53;;;;;;;33.69;81.98;154528.94;5115208;28;20648;-62
2022/08/12 06:03:29;;;;;;;7.30;7.00;;;;;;;34.45;76.79;154721.66;5114963;28;20190;-62
2022/08/12 06:05:57;;;;;;;7.38;6.75;;;;;;;34.52;74.07;154739.63;5114692;28;20240;-62
2022/08/12 06:08:25;;;;;;;7.50;7.20;;;;;;;33.37;80.26;154446.69;5114781;28;20206;-61
2022/08/12 06:10:52;;;;;;;8.82;8.07;;;;;;;33.12;84.43;154382.44;5114474;28;20630;-61
2022/08/12 06:13:20;;;;;;;7.45;6.97;;;;;;;32.34;90.55;154184.72;5114491;28;20301;-62
2022/08/12 06:15:48;;;;;;;7.70;7.30;;;;;;;31.86;96.70;154062.81;5114488;28;20237;-63
2022/08/12 06:18:14;;;;;;;8.00;7.60;;;;;;;31.57;96.93;153989.72;5114195;28;20226;-60
2022/08/12 06:20:46;;;;;;;7.88;7.45;;;;;;;31.31;100.00;153924.25;5114911;28;20622;-61
2022/08/12 06:23:14;;;;;;;8.43;7.75;;;;;;;30.92;100.00;153825.47;5114512;28;20209;-61
2022/08/12 06:25:42;;;;;;;8.15;7.70;;;;;;;30.76;100.00;153784.44;5114530;28;20690;-61
2022/08/12 06:28:16;;;;;;;8.02;7.70;;;;;;;31.00;100.00;153846.03;5095200;28;20191;-62
2022/08/12 06:30:44;;;;;;;8.25;7.85;;;;;;;30.99;100.00;153842.09;5114335;28;20232;-61
2022/08/12 06:33:12;;;;;;;7.97;7.65;;;;;;;30.89;100.00;153817.78;5114620;28;20193;-62
2022/08/12 06:35:40;;;;;;;8.02;7.63;;;;;;;30.74;100.00;153779.28;5114099;28;20184;-62
2022/08/12 06:38:16;;;;;;;7.15;6.63;;;;;;;30.68;100.00;153763.94;5114169;28;20180;-61
2022/08/12 06:43:28;;;;;;;8.93;8.32;;;;;;;30.92;100.00;153825.47;5114136;28;20242;-62
2022/08/12 06:45:56;;;;;;;7.88;7.40;;;;;;;31.08;100.00;153866.53;5114137;28;20767;-62
2022/08/12 06:48:25;;;;;;;8.70;8.40;;;;;;;31.24;100.00;153906.25;5095616;28;20241;-62
2022/08/12 06:50:52;;;;;;;8.98;8.25;;;;;;;31.21;100.00;153899.88;5114199;28;20188;-62
2022/08/12 06:53:23;;;;;;;8.85;8.45;;;;;;;31.43;100.00;153953.72;5114137;28;20206;-61
2022/08/12 06:55:50;;;;;;;8.13;7.82;;;;;;;31.43;98.58;153955.03;5113693;28;20194;-62
2022/08/12 06:58:19;;;;;;;10.13;9.38;;;;;;;31.49;99.55;153969.09;5114045;28;20650;-61
2022/08/12 07:00:48;;;;;;;9.70;8.75;;;;;;;31.51;100.00;153974.25;5113983;28;20646;-60
2022/08/12 07:03:21;;;;;;;7.82;7.30;;;;;;;31.43;100.00;153953.72;5113636;28;20183;-61
2022/08/12 07:05:48;;;;;;;8.60;8.13;;;;;;;31.52;98.61;153978.13;5114117;28;20638;-63
2022/08/12 07:08:15;;;;;;;8.77;8.25;;;;;;;31.81;98.16;154051.28;5113854;28;20240;-61
2022/08/12 07:10:56;;;;;;;8.85;8.23;;;;;;;31.61;97.84;153999.97;5113677;28;20197;-61
2022/08/12 07:13:23;;;;;;;8.57;8.07;;;;;;;31.28;100.00;153916.53;5113289;28;20234;-61
2022/08/12 07:15:55;;;;;;;8.68;8.07;;;;;;;31.41;99.31;153948.59;5113433;28;20219;-62
2022/08/12 07:18:28;;;;;;;8.77;8.27;;;;;;;31.62;98.04;154003.78;5113199;28;20223;-61
2022/08/12 07:20:56;;;;;;;9.80;7.90;;;;;;;31.67;99.37;154015.34;5113438;28;20652;-61
2022/08/12 07:23:23;;;;;;;8.02;7.57;;;;;;;31.77;97.66;154041.00;5113094;28;20188;-62
2022/08/12 07:25:51;;;;;;;8.50;8.05;;;;;;;31.88;96.06;154069.22;5113271;28;20190;-62
2022/08/12 07:28:22;;;;;;;10.02;8.90;;;;;;;31.69;95.90;154020.50;5113669;28;20190;-61
2022/08/12 07:30:51;;;;;;;8.77;8.18;;;;;;;31.54;97.08;153981.94;5113237;28;20274;-61
2022/08/12 07:33:21;;;;;;;8.73;8.13;;;;;;;31.60;96.92;153998.69;5113713;28;20187;-61
2022/08/12 07:35:53;;;;;;;9.02;8.70;;;;;;;31.77;96.22;154041.00;5113353;28;20234;-61
2022/08/12 07:38:23;;;;;;;9.77;8.50;;;;;;;31.80;93.10;154048.69;5113995;28;20218;-62
2022/08/12 07:40:53;;;;;;;8.60;8.27;;;;;;;31.89;94.39;154071.78;5112690;28;20184;-61
2022/08/12 07:43:27;;;;;;;8.45;7.80;;;;;;;31.87;92.41;154065.41;5113241;28;20195;-62
2022/08/12 07:45:55;;;;;;;8.68;8.05;;;;;;;32.18;92.91;154144.97;5113427;28;20183;-62
2022/08/12 07:48:23;;;;;;;8.90;8.25;;;;;;;31.97;91.50;154092.31;5112720;28;20290;-61
2022/08/12 07:50:50;;;;;;;8.73;8.43;;;;;;;32.38;91.34;154196.28;5112819;28;20245;-62
2022/08/12 07:53:18;;;;;;;8.27;7.88;;;;;;;32.63;87.96;154259.25;5112969;28;20765;-62
2022/08/12 07:55:46;;;;;;;9.25;8.52;;;;;;;32.79;88.09;154299.03;5113009;28;20586;-61
2022/08/12 07:58:14;;;;;;;8.35;7.80;;;;;;;32.89;85.13;154325.94;5112826;28;20192;-62
2022/08/12 08:00:43;;;;;;;8.65;8.25;;;;;;;33.11;84.57;154379.88;5112596;28;20215;-63
2022/08/12 08:03:12;;;;;;;8.35;7.88;;;;;;;33.49;83.25;154478.78;5112759;28;20179;-61
2022/08/12 08:05:45;;;;;;;8.57;8.27;;;;;;;33.48;80.20;154474.97;5113086;28;20561;-62
2022/08/12 08:08:16;;;;;;;9.20;8.55;;;;;;;33.37;80.68;154446.69;5112277;28;20191;-61
2022/08/12 08:10:44;;;;;;;9.80;8.85;;;;;;;33.30;80.90;154430.00;5112454;28;20240;-61
2022/08/12 08:13:11;;;;;;;9.15;8.82;;;;;;;33.54;79.22;154490.34;5112475;28;20229;-61
2022/08/12 08:15:40;;;;;;;8.82;8.35;;;;;;;34.02;78.03;154611.13;5112407;28;20207;-60
2022/08/12 08:18:10;;;;;;;9.40;8.80;;;;;;;33.78;77.40;154550.78;5112066;28;20183;-61
2022/08/12 08:20:41;;;;;;;9.50;9.10;;;;;;;33.87;75.59;154575.16;5113102;28;20230;-61
2022/08/12 08:23:12;;;;;;;9.43;8.95;;;;;;;33.93;75.61;154589.28;5112437;28;20183;-62
2022/08/12 08:25:40;;;;;;;8.95;8.65;;;;;;;33.64;75.39;154514.75;5112139;28;20191;-61
2022/08/12 08:28:10;;;;;;;9.90;9.32;;;;;;;33.98;77.05;154602.16;5112127;28;20195;-60
2022/08/12 08:30:43;;;;;;;9.43;8.98;;;;;;;33.89;74.72;154580.31;5112486;28;20514;-60
2022/08/12 08:33:11;;;;;;;9.60;9.00;;;;;;;33.85;75.86;154568.75;5112560;28;20254;-63
2022/08/12 08:35:39;;;;;;;10.05;8.73;;;;;;;33.79;70.82;154554.59;5094765;28;20657;-62
2022/08/12 08:38:12;;;;;;;9.02;8.70;;;;;;;33.50;75.21;154480.06;5112413;28;20188;-61
2022/08/12 08:43:25;;;;;;;9.00;8.60;;;;;;;33.00;80.98;154354.22;5113108;28;20566;-63
2022/08/12 08:45:55;;;;;;;11.65;9.85;;;;;;;33.27;78.28;154421.03;5112662;28;20189;-61
2022/08/12 08:48:22;;;;;;;10.52;9.88;;;;;;;33.27;76.02;154421.03;5112866;28;20179;-64
2022/08/12 08:50:49;;;;;;;10.27;9.45;;;;;;;33.54;75.41;154490.34;5112000;28;20183;-64
2022/08/12 08:53:17;;;;;;;9.90;9.18;;;;;;;33.67;74.06;154523.78;5112816;28;20187;-63
2022/08/12 08:55:44;;;;;;;9.48;8.75;;;;;;;33.64;74.55;154514.75;5112651;28;20652;-64
2022/08/12 08:58:11;;;;;;;11.18;10.32;;;;;;;33.94;76.51;154591.88;5112693;28;20561;-65
2022/08/12 09:00:39;;;;;;;11.15;9.35;;;;;;;34.23;72.81;154665.13;5112598;28;20685;-64
2022/08/12 09:03:07;;;;;;;9.20;8.60;;;;;;;34.27;73.48;154675.41;5113065;28;20244;-64
2022/08/12 09:05:37;;;;;;;10.40;9.20;;;;;;;33.64;71.03;154516.03;5112514;28;20188;-65
2022/08/12 09:08:05;;;;;;;9.43;8.98;;;;;;;33.38;75.07;154449.25;5111906;28;20191;-64
2022/08/12 09:10:33;;;;;;;10.05;9.38;;;;;;;33.60;77.64;154504.47;5111857;28;20191;-64
2022/08/12 09:15:47;;;;;;;10.02;9.27;;;;;;;32.90;76.64;154328.53;5112307;28;20182;-64
2022/08/12 09:18:17;;;;;;;11.95;10.77;;;;;;;33.32;76.49;154433.84;5111743;28;20202;-64
2022/08/12 09:20:44;;;;;;;10.73;10.02;;;;;;;32.77;79.28;154295.16;5111586;28;20234;-65
2022/08/12 09:23:12;;;;;;;10.60;10.13;;;;;;;32.44;81.44;154210.41;5112049;28;20187;-64
2022/08/12 09:25:40;;;;;;;10.50;9.82;;;;;;;32.69;79.53;154274.63;5105500;28;20206;-66
2022/08/12 09:28:09;;;;;;;10.77;9.90;;;;;;;33.43;78.27;154462.13;5093905;28;20203;-63
2022/08/12 09:30:36;;;;;;;10.45;9.70;;;;;;;33.47;74.39;154472.38;5091787;28;20606;-65
2022/08/12 09:33:03;;;;;;;9.82;9.32;;;;;;;33.84;73.99;154567.44;5091733;28;20510;-64
2022/08/12 09:35:39;;;;;;;11.20;9.88;;;;;;;34.00;71.92;154607.25;5091600;28;20191;-64
2022/08/12 09:38:10;;;;;;;10.77;10.07;;;;;;;32.74;77.56;154287.47;5104248;28;20278;-64
2022/08/12 09:40:37;;;;;;;10.20;9.50;;;;;;;33.00;77.22;154354.22;5087775;28;20227;-64
2022/08/12 09:45:48;;;;;;;10.13;9.43;;;;;;;34.01;71.44;154609.84;5091505;28;20263;-65
2022/08/12 09:48:18;;;;;;;10.30;9.43;;;;;;;34.16;70.34;154648.41;5091435;28;20763;-64
2022/08/12 09:50:49;;;;;;;10.02;9.45;;;;;;;34.42;67.62;154713.91;5091035;28;20195;-64
2022/08/12 09:53:19;;;;;;;10.57;9.68;;;;;;;33.68;67.42;154526.38;5091458;28;20196;-64
2022/08/12 09:55:51;;;;;;;10.70;10.00;;;;;;;33.06;69.52;154369.59;5091529;28;20184;-64
2022/08/12 09:58:19;;;;;;;10.82;10.38;;;;;;;33.47;69.59;154472.38;5091825;28;20199;-64
2022/08/12 10:00:47;;;;;;;10.23;9.45;;;;;;;33.59;68.08;154503.19;5091261;28;20199;-64
2022/08/12 10:03:15;;;;;;;10.20;9.50;;;;;;;33.31;66.10;154432.53;5093672;28;20188;-64
2022/08/12 10:05:43;;;;;;;11.30;10.48;;;;;;;32.92;69.23;154332.41;5095417;28;20271;-65
2022/08/12 10:08:58;;;;;;;10.75;10.05;;;;;;;32.13;74.46;154133.41;5095611;28;20313;-65
2022/08/12 10:14:10;;;;;;;10.10;9.43;;;;;;;32.75;73.70;154288.75;5094858;28;20270;-65
2022/08/12 10:16:42;;;;;;;10.43;9.50;;;;;;;33.36;74.40;154444.09;5094903;28;20218;-65
2022/08/12 10:19:10;;;;;;;10.75;10.05;;;;;;;33.90;69.51;154581.59;5094894;28;20187;-64
2022/08/12 10:21:39;;;;;;;10.10;9.48;;;;;;;33.94;67.44;154591.88;5094380;28;20184;-64
2022/08/12 10:24:07;;;;;;;10.13;9.52;;;;;;;33.38;66.85;154450.56;5094469;28;20192;-64
2022/08/12 10:29:40;;;;;;;11.30;9.80;;;;;;;33.54;60.25;154490.34;5095179;28;20191;-63
2022/08/12 10:32:11;;;;;;;10.38;9.60;;;;;;;33.84;59.58;154566.16;5079603;28;20180;-63
2022/08/12 10:34:39;;;;;;;10.20;9.40;;;;;;;33.91;60.35;154585.41;5094163;28;20227;-63
2022/08/12 10:37:06;;;;;;;10.55;9.90;;;;;;;33.95;62.05;154594.41;5094347;28;20191;-64
2022/08/12 10:39:36;;;;;;;10.07;9.38;;;;;;;33.41;64.23;154456.97;5094178;28;20257;-63
2022/08/12 10:44:51;;;;;;;9.73;9.02;;;;;;;33.70;63.61;154531.47;5094341;28;20194;-64
2022/08/12 10:47:18;;;;;;;10.05;9.32;;;;;;;33.83;63.57;154564.88;5094420;28;20639;-63
2022/08/12 10:49:45;;;;;;;10.38;9.68;;;;;;;33.69;63.69;154528.94;5094138;28;20196;-64
2022/08/12 10:52:12;;;;;;;10.55;10.15;;;;;;;33.54;64.21;154490.34;5075930;28;20275;-64
2022/08/12 10:54:40;;;;;;;10.88;8.68;;;;;;;33.94;64.93;154593.16;5093913;28;20559;-64
2022/08/12 10:57:09;;;;;;;9.90;9.40;;;;;;;34.08;63.96;154626.50;5094081;28;20574;-64
2022/08/12 10:59:36;;;;;;;11.40;9.90;;;;;;;34.08;62.22;154626.50;5105074;28;20204;-64
2022/08/12 11:02:03;;;;;;;9.77;9.27;;;;;;;33.11;63.32;154381.16;5110173;28;20195;-63
2022/08/12 11:04:32;;;;;;;10.60;9.85;;;;;;;33.06;65.42;154368.31;5114105;28;20187;-63
2022/08/12 11:07:02;;;;;;;10.07;9.48;;;;;;;32.61;66.93;154254.03;5113812;28;20188;-65
2022/08/12 11:09:31;;;;;;;10.93;10.00;;;;;;;32.45;66.80;154214.28;5113762;28;20194;-65
2022/08/12 11:12:04;;;;;;;10.57;10.05;;;;;;;32.68;68.00;154270.75;5114188;28;20209;-64
2022/08/12 11:14:33;;;;;;;14.55;10.50;;;;;;;32.83;70.55;154310.56;5112827;28;20681;-64
2022/08/12 11:17:00;;;;;;;17.35;11.13;;;;;;;32.84;76.49;154313.16;5113627;28;20278;-64
2022/08/12 11:19:28;;;;;;;9.75;9.15;;;;;;;32.92;68.28;154333.69;5113264;28;20198;-64
2022/08/12 11:21:56;;;;;;;12.50;10.32;;;;;;;33.06;66.97;154369.59;5113058;28;20240;-63
2022/08/12 11:24:24;;;;;;;11.68;10.50;;;;;;;33.02;77.08;154358.03;5113151;28;20176;-65
2022/08/12 11:26:52;;;;;;;11.98;10.98;;;;;;;32.72;86.34;154282.31;5112918;28;20187;-65
2022/08/12 11:29:20;;;;;;;11.52;10.75;;;;;;;31.61;91.56;154001.25;5113041;28;20187;-65
2022/08/12 11:31:50;;;;;;;13.95;11.10;;;;;;;31.81;94.64;154051.28;5113347;28;20175;-65
2022/08/12 11:34:18;;;;;;;11.55;10.98;;;;;;;31.86;96.65;154062.81;5113529;28;20195;-64
2022/08/12 11:36:51;;;;;;;12.38;11.40;;;;;;;31.61;100.00;154001.25;5113321;28;20214;-64
2022/08/12 11:39:18;;;;;;;11.40;10.35;;;;;;;31.34;100.00;153931.94;5113460;28;20553;-63
2022/08/12 11:41:45;;;;;;;11.77;11.05;;;;;;;31.00;100.00;153846.03;5112991;28;20298;-64
2022/08/12 11:44:12;;;;;;;19.52;11.52;;;;;;;31.09;100.00;153869.09;5113545;28;20634;-65
2022/08/12 11:46:40;;;;;;;12.13;11.20;;;;;;;30.60;100.00;153744.66;5113305;28;20190;-64
2022/08/12 11:49:09;;;;;;;11.48;10.80;;;;;;;29.66;100.00;153504.94;5113053;28;20187;-65
2022/08/12 11:51:37;;;;;;;13.00;10.93;;;;;;;29.21;100.00;153390.88;5112923;28;20194;-64
2022/08/12 11:54:06;;;;;;;12.13;11.48;;;;;;;29.03;100.00;153346.03;5113014;28;20187;-62
2022/08/12 11:56:33;;;;;;;12.13;11.23;;;;;;;28.88;100.00;153308.91;5113118;28;20179;-64
2022/08/12 11:59:00;;;;;;;11.73;11.00;;;;;;;28.80;100.00;153287.16;5113452;28;20205;-66
2022/08/12 12:01:27;;;;;;;11.80;11.13;;;;;;;28.44;100.00;153196.16;5113336;28;20593;-65
2022/08/12 12:03:54;;;;;;;11.88;11.00;;;;;;;28.25;100.00;153148.84;5113466;28;20184;-64
2022/08/12 12:06:23;;;;;;;11.75;10.68;;;;;;;28.29;100.00;153157.78;5113168;28;20179;-65
2022/08/12 12:08:50;;;;;;;12.70;10.77;;;;;;;28.23;100.00;153143.69;5112985;28;20297;-64
2022/08/12 12:11:17;;;;;;;11.60;10.80;;;;;;;28.27;100.00;153152.63;5113279;28;20630;-64
2022/08/12 12:13:48;;;;;;;12.15;11.15;;;;;;;27.88;100.00;153054.06;5112666;28;20287;-64
2022/08/12 12:16:15;;;;;;;11.48;10.88;;;;;;;27.47;100.00;152951.69;5112759;28;20561;-64
2022/08/12 12:18:44;;;;;;;13.70;12.05;;;;;;;27.51;100.00;152961.91;5112708;28;20180;-64
2022/08/12 12:21:11;;;;;;;12.80;11.57;;;;;;;27.49;100.00;152955.53;5112872;28;20230;-64
2022/08/12 12:23:39;;;;;;;13.68;12.55;;;;;;;27.43;100.00;152940.13;5113209;28;20664;-61
2022/08/12 12:26:07;;;;;;;14.20;12.85;;;;;;;27.43;100.00;152941.41;5112368;28;20193;-63
2022/08/12 12:28:34;;;;;;;12.50;11.88;;;;;;;27.36;100.00;152922.22;5112377;28;20183;-63
2022/08/12 12:31:02;;;;;;;13.38;11.65;;;;;;;27.25;100.00;152895.34;5112397;28;20179;-63
2022/08/12 12:33:29;;;;;;;14.00;12.77;;;;;;;27.18;100.00;152877.44;5094141;28;20745;-64
2022/08/12 12:35:56;;;;;;;13.23;12.15;;;;;;;27.15;100.00;152869.78;5112040;28;20183;-64
2022/08/12 12:38:23;;;;;;;14.40;12.00;;;;;;;26.93;100.00;152814.78;5112145;28;20193;-64
2022/08/12 12:40:51;;;;;;;14.43;13.27;;;;;;;26.90;100.00;152805.81;5112367;28;20537;-64
2022/08/12 12:43:20;;;;;;;13.63;12.68;;;;;;;26.89;100.00;152803.25;5112962;28;20214;-64
2022/08/12 12:45:49;;;;;;;13.13;12.43;;;;;;;26.85;100.00;152794.31;5112842;28;20206;-64
2022/08/12 12:48:17;;;;;;;13.02;12.07;;;;;;;26.82;100.00;152786.56;5112409;28;20219;-65
2022/08/12 12:50:46;;;;;;;13.75;12.80;;;;;;;26.85;100.00;152793.03;5112176;28;20646;-61
2022/08/12 12:53:17;;;;;;;13.50;12.57;;;;;;;26.78;100.00;152777.59;5112155;28;20191;-65
2022/08/12 12:55:45;;;;;;;12.13;11.43;;;;;;;26.54;100.00;152716.25;5112305;28;20200;-64
2022/08/12 12:58:16;;;;;;;12.85;11.93;;;;;;;26.46;100.00;152695.78;5112575;28;20238;-65
2022/08/12 13:00:44;;;;;;;12.98;12.27;;;;;;;26.58;100.00;152726.47;5112273;28;20708;-64
2022/08/12 13:03:12;;;;;;;13.38;12.40;;;;;;;26.47;100.00;152697.06;5111988;28;20286;-64
2022/08/12 13:05:42;;;;;;;12.93;12.07;;;;;;;26.44;100.00;152689.41;5111886;28;20183;-65
2022/08/12 13:08:23;;;;;;;13.93;13.02;;;;;;;26.55;100.00;152718.81;5112463;28;20259;-64